createdAt,value
2022-08-26T04:45:59.879Z,88.59
2022-08-26T04:47:00.763Z,88.68
2022-08-26T04:48:00.746Z,88.99
2022-08-26T04:49:00.734Z,89.29
2022-08-26T04:50:01.969Z,89.39
2022-08-26T04:51:00.710Z,89.50
2022-08-26T04:52:00.716Z,89.59
2022-08-26T04:53:00.688Z,89.90
2022-08-26T04:54:00.691Z,90.00
2022-08-26T04:55:00.665Z,89.70
2022-08-26T04:56:00.661Z,89.79
2022-08-26T04:57:00.653Z,89.09
2022-08-26T04:58:00.642Z,89.50
2022-08-26T04:59:00.720Z,88.68
2022-08-26T05:00:00.644Z,88.68
2022-08-26T05:01:00.603Z,89.09
2022-08-26T05:02:00.666Z,89.09
2022-08-26T05:03:00.581Z,89.03
2022-08-26T05:04:00.592Z,89.43
2022-08-26T05:05:00.566Z,89.13
2022-08-26T05:06:00.556Z,89.34
2022-08-26T05:07:02.582Z,89.13
2022-08-26T05:08:00.532Z,89.64
2022-08-26T05:09:00.525Z,89.34
2022-08-26T05:10:00.529Z,89.43
2022-08-26T05:11:00.501Z,89.23
2022-08-26T05:12:00.510Z,89.84
2022-08-26T05:13:00.476Z,89.84
2022-08-26T05:14:02.343Z,89.43
2022-08-26T05:15:00.457Z,89.43
2022-08-26T05:16:01.097Z,89.34
2022-08-26T05:17:00.451Z,89.74
2022-08-26T05:18:00.443Z,90.04
2022-08-26T05:19:00.422Z,90.14
2022-08-26T05:20:00.418Z,89.84
2022-08-26T05:21:00.399Z,90.24
2022-08-26T05:22:00.401Z,90.10
2022-08-26T05:23:00.375Z,90.10
2022-08-26T05:24:00.372Z,90.61
2022-08-26T05:25:00.366Z,90.50
2022-08-26T05:26:00.615Z,90.30
2022-08-26T05:27:00.346Z,90.50
2022-08-26T05:28:00.331Z,90.70
2022-08-26T05:29:00.342Z,90.50
2022-08-26T05:30:00.307Z,90.36
2022-08-26T05:31:00.348Z,89.65
2022-08-26T05:32:00.305Z,89.45
2022-08-26T05:33:00.288Z,89.11
2022-08-26T05:34:00.269Z,88.60
2022-08-26T05:35:00.267Z,88.26
2022-08-26T05:36:00.245Z,87.76
2022-08-26T05:37:00.251Z,87.55
2022-08-26T05:38:00.235Z,87.11
2022-08-26T05:39:00.218Z,86.71
2022-08-26T05:40:00.317Z,87.21
2022-08-26T05:41:00.204Z,86.41
2022-08-26T05:42:00.201Z,86.51
2022-08-26T05:43:00.170Z,86.16
2022-08-26T05:44:00.168Z,85.66
2022-08-26T05:45:00.152Z,85.56
2022-08-26T05:46:00.220Z,85.56
2022-08-26T05:47:00.143Z,85.31
2022-08-26T05:48:00.127Z,85.72
2022-08-26T05:49:00.163Z,85.02
2022-08-26T05:50:00.145Z,84.91
2022-08-26T05:51:00.097Z,85.22
2022-08-26T05:52:00.096Z,85.42
2022-08-26T05:53:00.071Z,84.81
2022-08-26T05:54:00.065Z,85.02
2022-08-26T05:55:00.052Z,84.61
2022-08-26T05:56:00.055Z,85.42
2022-08-26T05:57:00.036Z,85.22
2022-08-26T05:58:00.021Z,84.91
2022-08-26T05:59:00.003Z,84.81
2022-08-26T05:59:59.996Z,84.91
2022-08-26T06:00:59.995Z,84.91
2022-08-26T06:02:00.038Z,84.91
2022-08-26T06:03:00.161Z,85.08
2022-08-26T06:04:01.531Z,84.77
2022-08-26T06:04:59.941Z,84.67
2022-08-26T06:05:59.934Z,84.67
2022-08-26T06:06:59.933Z,84.88
2022-08-26T06:07:59.916Z,84.47
2022-08-26T06:08:59.906Z,84.71
2022-08-26T06:10:28.237Z,84.91
2022-08-26T06:10:59.915Z,85.11
2022-08-26T06:11:59.890Z,84.88
2022-08-26T06:13:03.211Z,84.77
2022-08-26T06:14:03.591Z,84.97
2022-08-26T06:14:59.852Z,84.88
2022-08-26T06:15:59.916Z,84.97
2022-08-26T06:16:59.846Z,85.42
2022-08-26T06:17:59.806Z,85.42
2022-08-26T06:18:59.880Z,85.52
2022-08-26T06:19:59.787Z,85.48
2022-08-26T06:20:59.768Z,85.17
2022-08-26T06:21:59.777Z,85.28
2022-08-26T06:22:59.753Z,84.74
2022-08-26T06:23:59.772Z,85.03
2022-08-26T06:24:59.729Z,84.94
2022-08-26T06:25:59.729Z,84.43
2022-08-26T06:26:59.719Z,84.69
2022-08-26T06:27:59.702Z,84.29
2022-08-26T06:28:59.688Z,84.19
2022-08-26T06:29:59.680Z,84.39
2022-08-26T06:30:59.749Z,84.59
2022-08-26T06:31:59.675Z,84.49
2022-08-26T06:32:59.639Z,84.35
2022-08-26T06:33:59.636Z,83.85
2022-08-26T06:34:59.618Z,84.05
2022-08-26T06:35:59.614Z,83.95
2022-08-26T06:36:59.775Z,84.09
2022-08-26T06:37:59.590Z,84.25
2022-08-26T06:38:59.583Z,84.25
2022-08-26T06:39:59.632Z,84.55
2022-08-26T06:40:59.874Z,84.25
2022-08-26T06:41:59.599Z,84.05
2022-08-26T06:42:59.539Z,83.75
2022-08-26T06:43:59.539Z,83.95
2022-08-26T06:44:59.516Z,83.95
2022-08-26T06:45:59.557Z,84.25
2022-08-26T06:46:59.512Z,84.01
2022-08-26T06:47:59.500Z,84.01
2022-08-26T06:48:59.482Z,84.01
2022-08-26T06:49:59.465Z,84.01
2022-08-26T06:50:59.442Z,83.87
2022-08-26T06:51:59.456Z,83.57
2022-08-26T06:52:59.466Z,83.77
2022-08-26T06:53:59.418Z,83.77
2022-08-26T06:54:59.406Z,83.17
2022-08-26T06:55:59.406Z,83.57
2022-08-26T06:56:59.396Z,83.63
2022-08-26T06:57:59.372Z,83.33
2022-08-26T06:58:59.363Z,82.82
2022-08-26T06:59:59.351Z,83.43
2022-08-26T07:01:03.052Z,83.53
2022-08-26T07:01:59.417Z,82.89
2022-08-26T07:02:59.374Z,82.89
2022-08-26T07:03:59.307Z,83.83
2022-08-26T07:04:59.303Z,83.83
2022-08-26T07:05:59.289Z,83.93
2022-08-26T07:06:59.295Z,83.93
2022-08-26T07:07:59.272Z,83.69
2022-08-26T07:08:59.250Z,83.59
2022-08-26T07:09:59.241Z,83.09
2022-08-26T07:10:59.279Z,83.19
2022-08-26T07:11:59.251Z,83.39
2022-08-26T07:12:59.222Z,83.35
2022-08-26T07:13:59.206Z,83.05
2022-08-26T07:14:59.189Z,82.45
2022-08-26T07:16:02.906Z,82.35
2022-08-26T07:16:59.188Z,82.11
2022-08-26T07:17:59.200Z,82.01
2022-08-26T07:18:59.135Z,81.91
2022-08-26T07:19:59.140Z,81.81
2022-08-26T07:20:59.124Z,81.67
2022-08-26T07:21:59.154Z,81.51
2022-08-26T07:22:59.104Z,81.77
2022-08-26T07:24:01.419Z,80.67
2022-08-26T07:24:59.078Z,80.87
2022-08-26T07:25:59.077Z,81.17
2022-08-26T07:26:59.112Z,81.07
2022-08-26T07:27:59.079Z,80.87
2022-08-26T07:28:59.361Z,81.17
2022-08-26T07:29:59.037Z,81.87
2022-08-26T07:30:59.059Z,81.67
2022-08-26T07:31:59.025Z,81.37
2022-08-26T07:32:58.995Z,82.31
2022-08-26T07:33:59.008Z,82.51
2022-08-26T07:34:58.978Z,82.85
2022-08-26T07:35:58.965Z,83.15
2022-08-26T07:36:58.978Z,83.25
2022-08-26T07:37:58.947Z,82.95
2022-08-26T07:38:58.943Z,83.65
2022-08-26T07:39:59.017Z,83.31
2022-08-26T07:40:58.919Z,82.91
2022-08-26T07:41:58.914Z,82.27
2022-08-26T07:42:58.912Z,82.37
2022-08-26T07:43:58.888Z,81.57
2022-08-26T07:44:58.884Z,81.83
2022-08-26T07:45:58.871Z,81.09
2022-08-26T07:46:58.893Z,80.63
2022-08-26T07:47:58.852Z,80.19
2022-08-26T07:48:58.844Z,80.79
2022-08-26T07:49:58.838Z,79.79
2022-08-26T07:50:58.811Z,79.96
2022-08-26T07:51:58.818Z,79.59
2022-08-26T07:52:58.807Z,79.89
2022-08-26T07:53:58.774Z,79.89
2022-08-26T07:54:58.780Z,79.35
2022-08-26T07:55:58.783Z,79.35
2022-08-26T07:56:58.761Z,79.29
2022-08-26T07:57:58.784Z,79.09
2022-08-26T07:58:58.731Z,79.46
2022-08-26T07:59:58.800Z,78.96
2022-08-26T08:00:58.726Z,78.72
2022-08-26T08:01:58.763Z,79.05
2022-08-26T08:02:58.691Z,80.09
2022-08-26T08:03:58.681Z,80.63
2022-08-26T08:04:58.832Z,81.03
2022-08-26T08:05:58.666Z,80.59
2022-08-26T08:06:58.680Z,80.59
2022-08-26T08:08:19.668Z,80.05
2022-08-26T08:08:58.638Z,78.72
2022-08-26T08:09:58.628Z,79.11
2022-08-26T08:10:58.607Z,80.02
2022-08-26T08:11:58.606Z,79.41
2022-08-26T08:12:58.584Z,78.08
2022-08-26T08:13:58.615Z,78.98
2022-08-26T08:14:58.571Z,77.38
2022-08-26T08:15:58.562Z,78.72
2022-08-26T08:16:58.652Z,79.22
2022-08-26T08:18:00.641Z,80.05
2022-08-26T08:18:58.525Z,80.29
2022-08-26T08:19:58.506Z,80.79
2022-08-26T08:21:19.563Z,80.49
2022-08-26T08:21:58.501Z,80.63
2022-08-26T08:22:58.516Z,81.13
2022-08-26T08:23:58.485Z,81.33
2022-08-26T08:24:58.458Z,80.99
2022-08-26T08:25:58.443Z,80.79
2022-08-26T08:26:58.450Z,80.79
2022-08-26T08:27:58.436Z,81.13
2022-08-26T08:28:58.419Z,81.53
2022-08-26T08:29:58.402Z,82.33
2022-08-26T08:30:58.433Z,82.87
2022-08-26T08:31:58.783Z,82.33
2022-08-26T08:32:58.390Z,81.93
2022-08-26T08:33:58.376Z,82.27
2022-08-26T08:34:58.363Z,82.67
2022-08-26T08:35:58.357Z,82.33
2022-08-26T08:36:58.362Z,82.33
2022-08-26T08:37:58.312Z,82.47
2022-08-26T08:38:58.317Z,82.97
2022-08-26T08:39:58.346Z,82.63
2022-08-26T08:40:58.290Z,81.43
2022-08-26T08:41:58.602Z,82.17
2022-08-26T08:42:58.292Z,82.77
2022-08-26T08:43:58.252Z,82.93
2022-08-26T08:44:58.251Z,82.33
2022-08-26T08:45:58.235Z,81.39
2022-08-26T08:46:58.242Z,80.85
2022-08-26T08:47:58.212Z,80.76
2022-08-26T08:48:58.212Z,80.99
2022-08-26T08:49:58.192Z,81.35
2022-08-26T08:50:58.184Z,80.69
2022-08-26T08:51:58.200Z,81.09
2022-08-26T08:52:58.168Z,81.05
2022-08-26T08:53:58.149Z,80.11
2022-08-26T08:54:58.154Z,79.11
2022-08-26T08:55:58.129Z,79.32
2022-08-26T08:56:59.695Z,79.22
2022-08-26T08:58:07.885Z,78.72
2022-08-26T08:58:58.110Z,79.22
2022-08-26T08:59:58.086Z,79.55
2022-08-26T09:00:58.145Z,79.55
2022-08-26T09:01:58.101Z,80.02
2022-08-26T09:02:58.059Z,79.52
2022-08-26T09:03:58.044Z,79.08
2022-08-26T09:04:58.045Z,77.98
2022-08-26T09:05:58.028Z,77.31
2022-08-26T09:07:58.002Z,75.95
2022-08-26T09:08:58.000Z,77.98
2022-08-26T09:09:57.986Z,77.44
2022-08-26T09:10:57.975Z,77.94
2022-08-26T09:11:57.974Z,76.81
2022-08-26T09:12:57.954Z,71.95
2022-08-26T09:13:57.942Z,69.85
2022-08-26T09:14:57.935Z,67.64
2022-08-26T09:15:57.920Z,67.50
2022-08-26T09:16:58.034Z,67.90
2022-08-26T09:17:57.899Z,68.96
2022-08-26T09:18:57.893Z,69.09
2022-08-26T09:19:57.881Z,70.75
2022-08-26T09:20:57.872Z,69.39
2022-08-26T09:21:57.873Z,67.41
2022-08-26T09:22:57.855Z,64.96
2022-08-26T09:23:57.835Z,65.06
2022-08-26T09:24:57.830Z,64.86
2022-08-26T09:25:57.816Z,67.14
2022-08-26T09:26:57.837Z,68.70
2022-08-26T09:27:57.795Z,71.39
2022-08-26T09:28:57.789Z,72.28
2022-08-26T09:29:57.773Z,69.06
2022-08-26T09:30:57.819Z,68.30
2022-08-26T09:31:57.769Z,66.48
2022-08-26T09:32:57.745Z,67.21
2022-08-26T09:33:57.728Z,68.37
2022-08-26T09:34:57.735Z,69.20
2022-08-26T09:35:57.708Z,65.59
2022-08-26T09:36:57.728Z,65.03
2022-08-26T09:37:57.690Z,66.11
2022-08-26T09:38:57.685Z,65.46
2022-08-26T09:39:57.722Z,63.02
2022-08-26T09:40:59.184Z,59.84
2022-08-26T09:41:57.665Z,57.34
2022-08-26T09:42:57.657Z,56.90
2022-08-26T09:43:57.627Z,56.75
2022-08-26T09:44:57.633Z,60.65
2022-08-26T09:45:59.700Z,64.27
2022-08-26T09:46:57.601Z,66.94
2022-08-26T09:47:57.611Z,69.73
2022-08-26T09:48:57.578Z,70.32
2022-08-26T09:49:57.574Z,69.13
2022-08-26T09:50:57.564Z,69.39
2022-08-26T09:51:57.555Z,68.53
2022-08-26T09:52:57.535Z,65.23
2022-08-26T09:53:57.549Z,61.99
2022-08-26T09:54:57.527Z,61.94
2022-08-26T09:55:57.501Z,59.58
2022-08-26T09:56:57.517Z,60.17
2022-08-26T09:57:59.921Z,59.53
2022-08-26T09:58:57.479Z,62.49
2022-08-26T09:59:57.460Z,64.27
2022-08-26T10:00:57.502Z,66.94
2022-08-26T10:01:57.531Z,66.91
2022-08-26T10:03:02.170Z,67.27
2022-08-26T10:03:57.449Z,68.80
2022-08-26T10:04:57.418Z,67.34
2022-08-26T10:05:57.409Z,65.16
2022-08-26T10:06:57.405Z,63.65
2022-08-26T10:07:57.400Z,62.29
2022-08-26T10:08:57.373Z,61.67
2022-08-26T10:09:57.363Z,60.72
2022-08-26T10:10:57.362Z,60.39
2022-08-26T10:11:57.343Z,60.17
2022-08-26T10:12:57.365Z,58.16
2022-08-26T10:13:57.324Z,60.35
2022-08-26T10:14:57.316Z,59.12
2022-08-26T10:15:57.302Z,58.83
2022-08-26T10:16:57.325Z,56.85
2022-08-26T10:17:57.299Z,59.63
2022-08-26T10:19:00.168Z,61.74
2022-08-26T10:19:57.840Z,62.59
2022-08-26T10:20:57.261Z,62.60
2022-08-26T10:21:57.264Z,61.74
2022-08-26T10:22:57.270Z,62.52
2022-08-26T10:23:57.234Z,63.84
2022-08-26T10:24:57.221Z,65.03
2022-08-26T10:25:59.186Z,65.62
2022-08-26T10:26:57.206Z,64.23
2022-08-26T10:27:57.196Z,64.14
2022-08-26T10:28:57.179Z,65.59
2022-08-26T10:29:57.176Z,66.18
2022-08-26T10:30:57.168Z,66.48
2022-08-26T10:32:02.576Z,66.45
2022-08-26T10:32:57.162Z,65.89
2022-08-26T10:34:00.221Z,63.21
2022-08-26T10:34:57.122Z,64.86
2022-08-26T10:35:57.124Z,67.38
2022-08-26T10:37:15.870Z,66.11
2022-08-26T10:37:57.115Z,66.61
2022-08-26T10:38:57.096Z,66.02
2022-08-26T10:39:58.888Z,64.47
2022-08-26T10:40:57.085Z,65.92
2022-08-26T10:41:57.063Z,64.23
2022-08-26T10:42:57.058Z,62.46
2022-08-26T10:43:57.033Z,60.94
2022-08-26T10:44:58.597Z,61.05
2022-08-26T10:45:57.291Z,60.10
2022-08-26T10:46:57.015Z,59.94
2022-08-26T10:47:57.005Z,59.28
2022-08-26T10:48:56.989Z,58.61
2022-08-26T10:50:03.030Z,60.52
2022-08-26T10:50:56.974Z,62.62
2022-08-26T10:51:56.949Z,64.20
2022-08-26T10:52:56.979Z,66.44
2022-08-26T10:53:56.948Z,67.77
2022-08-26T10:54:56.925Z,67.94
2022-08-26T10:55:56.920Z,66.38
2022-08-26T10:56:56.913Z,64.63
2022-08-26T10:57:56.901Z,61.74
2022-08-26T10:58:56.887Z,59.58
2022-08-26T10:59:56.866Z,59.47
2022-08-26T11:00:56.913Z,60.62
2022-08-26T11:01:56.853Z,62.59
2022-08-26T11:02:56.872Z,64.63
2022-08-26T11:03:57.857Z,66.11
2022-08-26T11:04:56.853Z,66.31
2022-08-26T11:05:56.814Z,65.78
2022-08-26T11:06:56.806Z,65.36
2022-08-26T11:07:57.125Z,66.42
2022-08-26T11:08:56.783Z,63.02
2022-08-26T11:09:56.760Z,62.79
2022-08-26T11:10:56.769Z,61.64
2022-08-26T11:11:56.744Z,60.75
2022-08-26T11:12:56.745Z,63.25
2022-08-26T11:13:56.711Z,61.71
2022-08-26T11:14:59.059Z,60.42
2022-08-26T11:15:56.698Z,59.74
2022-08-26T11:16:56.794Z,59.80
2022-08-26T11:17:56.710Z,60.78
2022-08-26T11:18:56.663Z,60.68
2022-08-26T11:20:01.928Z,60.22
2022-08-26T11:20:56.653Z,58.36
2022-08-26T11:21:56.634Z,59.31
2022-08-26T11:22:56.633Z,60.85
2022-08-26T11:23:56.624Z,61.57
2022-08-26T11:24:56.604Z,61.80
2022-08-26T11:25:56.985Z,61.90
2022-08-26T11:26:56.809Z,62.52
2022-08-26T11:27:56.579Z,63.31
2022-08-26T11:28:56.553Z,63.87
2022-08-26T11:29:56.547Z,63.51
2022-08-26T11:30:58.111Z,62.92
2022-08-26T11:31:56.724Z,63.42
2022-08-26T11:32:56.531Z,61.96
2022-08-26T11:33:56.500Z,63.61
2022-08-26T11:34:56.521Z,63.71
2022-08-26T11:35:56.489Z,61.47
2022-08-26T11:36:56.465Z,60.22
2022-08-26T11:37:56.514Z,60.10
2022-08-26T11:38:56.457Z,62.04
2022-08-26T11:39:57.199Z,62.66
2022-08-26T11:40:56.426Z,62.99
2022-08-26T11:41:57.843Z,62.59
2022-08-26T11:42:56.416Z,62.49
2022-08-26T11:43:56.387Z,62.33
2022-08-26T11:44:58.027Z,64.34
2022-08-26T11:45:56.404Z,62.16
2022-08-26T11:46:56.359Z,62.72
2022-08-26T11:47:56.356Z,64.04
2022-08-26T11:48:56.335Z,63.94
2022-08-26T11:49:56.319Z,64.67
2022-08-26T11:50:56.323Z,65.03
2022-08-26T11:51:56.306Z,64.50
2022-08-26T11:52:56.317Z,63.74
2022-08-26T11:53:56.301Z,61.80
2022-08-26T11:54:56.275Z,60.10
2022-08-26T11:55:56.262Z,60.62
2022-08-26T11:56:56.246Z,61.61
2022-08-26T11:57:56.264Z,61.11
2022-08-26T11:58:56.229Z,62.20
2022-08-26T11:59:56.223Z,61.44
2022-08-26T12:00:56.207Z,62.66
2022-08-26T12:01:56.195Z,62.36
2022-08-26T12:02:56.204Z,62.13
2022-08-26T12:03:56.256Z,61.64
2022-08-26T12:04:56.157Z,63.45
2022-08-26T12:05:56.152Z,63.06
2022-08-26T12:06:56.161Z,61.67
2022-08-26T12:07:56.145Z,62.66
2022-08-26T12:08:56.115Z,62.29
2022-08-26T12:09:56.408Z,63.52
2022-08-26T12:10:56.123Z,59.95
2022-08-26T12:11:58.140Z,63.08
2022-08-26T12:12:56.095Z,63.87
2022-08-26T12:13:56.072Z,65.75
2022-08-26T12:14:56.051Z,65.42
2022-08-26T12:15:56.147Z,63.34
2022-08-26T12:16:56.110Z,63.87
2022-08-26T12:17:56.055Z,64.76
2022-08-26T12:18:56.010Z,66.28
2022-08-26T12:19:56.005Z,64.67
2022-08-26T12:20:55.988Z,64.76
2022-08-26T12:21:56.003Z,63.68
2022-08-26T12:22:55.977Z,61.44
2022-08-26T12:23:55.969Z,58.91
2022-08-26T12:24:55.939Z,59.20
2022-08-26T12:25:55.937Z,60.78
2022-08-26T12:26:55.953Z,62.10
2022-08-26T12:27:55.927Z,61.64
2022-08-26T12:28:55.905Z,60.13
2022-08-26T12:29:55.899Z,59.18
2022-08-26T12:30:55.895Z,58.98
2022-08-26T12:31:55.996Z,60.03
2022-08-26T12:32:57.810Z,60.85
2022-08-26T12:33:55.852Z,60.32
2022-08-26T12:34:55.925Z,60.75
2022-08-26T12:35:56.402Z,61.15
2022-08-26T12:36:55.926Z,61.34
2022-08-26T12:37:55.822Z,60.94
2022-08-26T12:38:58.308Z,60.75
2022-08-26T12:39:55.856Z,62.63
2022-08-26T12:40:55.775Z,61.67
2022-08-26T12:41:55.771Z,63.09
2022-08-26T12:42:55.785Z,63.84
2022-08-26T12:43:55.775Z,65.69
2022-08-26T12:44:55.748Z,65.16
2022-08-26T12:45:55.761Z,63.18
2022-08-26T12:46:55.742Z,64.04
2022-08-26T12:47:55.721Z,66.22
2022-08-26T12:48:55.711Z,67.47
2022-08-26T12:49:55.685Z,68.46
2022-08-26T12:50:55.676Z,67.67
2022-08-26T12:51:55.669Z,67.90
2022-08-26T12:52:55.653Z,65.20
2022-08-26T12:53:55.648Z,62.88
2022-08-26T12:54:56.959Z,63.28
2022-08-26T12:55:55.629Z,63.18
2022-08-26T12:56:55.603Z,63.18
2022-08-26T12:57:55.612Z,64.01
2022-08-26T12:58:55.641Z,64.57
2022-08-26T12:59:55.578Z,62.59
2022-08-26T13:00:55.680Z,61.83
2022-08-26T13:01:55.763Z,62.10
2022-08-26T13:02:55.544Z,63.71
2022-08-26T13:03:55.551Z,63.71
2022-08-26T13:04:58.730Z,63.81
2022-08-26T13:05:55.520Z,62.59
2022-08-26T13:06:55.494Z,62.96
2022-08-26T13:07:55.490Z,62.53
2022-08-26T13:08:55.506Z,62.26
2022-08-26T13:09:55.464Z,63.71
2022-08-26T13:10:55.454Z,64.43
2022-08-26T13:11:55.451Z,64.37
2022-08-26T13:12:55.444Z,65.62
2022-08-26T13:13:55.429Z,65.46
2022-08-26T13:14:55.404Z,64.63
2022-08-26T13:15:55.426Z,63.71
2022-08-26T13:16:55.391Z,63.91
2022-08-26T13:17:55.387Z,63.31
2022-08-26T13:18:55.381Z,64.20
2022-08-26T13:19:57.986Z,61.37
2022-08-26T13:20:55.342Z,61.18
2022-08-26T13:21:55.419Z,59.83
2022-08-26T13:22:58.599Z,61.37
2022-08-26T13:23:55.356Z,62.07
2022-08-26T13:24:55.316Z,61.94
2022-08-26T13:25:55.293Z,61.44
2022-08-26T13:26:55.330Z,62.13
2022-08-26T13:27:55.341Z,61.57
2022-08-26T13:29:01.795Z,63.51
2022-08-26T13:29:55.272Z,62.99
2022-08-26T13:30:55.263Z,60.88
2022-08-26T13:31:55.387Z,61.37
2022-08-26T13:32:55.291Z,62.29
2022-08-26T13:33:55.284Z,60.94
2022-08-26T13:34:55.207Z,61.90
2022-08-26T13:35:55.219Z,63.84
2022-08-26T13:36:55.209Z,64.67
2022-08-26T13:37:55.194Z,66.68
2022-08-26T13:38:55.178Z,66.65
2022-08-26T13:39:55.193Z,64.53
2022-08-26T13:40:55.177Z,64.53
2022-08-26T13:41:55.141Z,63.71
2022-08-26T13:42:55.145Z,62.49
2022-08-26T13:43:55.119Z,63.02
2022-08-26T13:44:55.130Z,63.68
2022-08-26T13:45:55.084Z,63.68
2022-08-26T13:46:55.094Z,62.66
2022-08-26T13:47:55.069Z,62.19
2022-08-26T13:48:55.076Z,63.02
2022-08-26T13:49:55.067Z,64.67
2022-08-26T13:50:55.023Z,62.36
2022-08-26T13:51:55.056Z,60.97
2022-08-26T13:52:54.998Z,61.27
2022-08-26T13:53:55.075Z,61.11
2022-08-26T13:54:55.052Z,61.02
2022-08-26T13:55:54.996Z,59.31
2022-08-26T13:56:54.964Z,60.13
2022-08-26T13:57:54.961Z,60.42
2022-08-26T13:58:55.027Z,60.13
2022-08-26T13:59:55.008Z,60.88
2022-08-26T14:00:54.995Z,61.40
2022-08-26T14:01:54.943Z,61.43
2022-08-26T14:02:55.013Z,62.42
2022-08-26T14:03:55.040Z,64.43
2022-08-26T14:04:54.967Z,62.42
2022-08-26T14:05:54.901Z,62.88
2022-08-26T14:06:54.858Z,61.21
2022-08-26T14:07:54.867Z,61.96
2022-08-26T14:08:54.890Z,60.94
2022-08-26T14:09:54.848Z,59.33
2022-08-26T14:10:54.828Z,59.33
2022-08-26T14:11:55.317Z,60.06
2022-08-26T14:12:54.800Z,61.10
2022-08-26T14:13:54.830Z,62.32
2022-08-26T14:14:54.787Z,63.34
2022-08-26T14:15:54.856Z,63.15
2022-08-26T14:16:59.389Z,63.34
2022-08-26T14:17:54.755Z,63.02
2022-08-26T14:18:54.781Z,62.62
2022-08-26T14:19:54.730Z,62.69
2022-08-26T14:20:54.698Z,61.83
2022-08-26T14:21:54.716Z,62.23
2022-08-26T14:23:13.125Z,62.62
2022-08-26T14:23:58.975Z,62.10
2022-08-26T14:24:54.673Z,62.66
2022-08-26T14:25:54.681Z,60.97
2022-08-26T14:26:54.656Z,61.57
2022-08-26T14:27:54.684Z,60.81
2022-08-26T14:28:54.622Z,61.93
2022-08-26T14:29:54.615Z,62.35
2022-08-26T14:30:54.590Z,63.24
2022-08-26T14:31:54.586Z,62.62
2022-08-26T14:32:54.562Z,63.31
2022-08-26T14:33:54.558Z,62.10
2022-08-26T14:34:54.553Z,61.93
2022-08-26T14:35:54.535Z,62.05
2022-08-26T14:36:54.522Z,63.05
2022-08-26T14:37:54.514Z,63.54
2022-08-26T14:38:54.531Z,63.15
2022-08-26T14:39:54.617Z,63.70
2022-08-26T14:40:54.474Z,64.10
2022-08-26T14:41:55.049Z,64.00
2022-08-26T14:42:54.449Z,64.99
2022-08-26T14:43:54.457Z,64.56
2022-08-26T14:44:54.455Z,64.17
2022-08-26T14:45:54.427Z,64.93
2022-08-26T14:46:54.489Z,64.14
2022-08-26T14:47:54.411Z,63.24
2022-08-26T14:48:54.398Z,63.84
2022-08-26T14:49:54.724Z,63.74
2022-08-26T14:50:54.368Z,63.45
2022-08-26T14:51:54.407Z,63.24
2022-08-26T14:52:54.346Z,63.28
2022-08-26T14:53:54.352Z,64.27
2022-08-26T14:54:55.124Z,65.29
2022-08-26T14:55:54.319Z,64.79
2022-08-26T14:56:54.295Z,65.49
2022-08-26T14:57:54.284Z,65.09
2022-08-26T14:58:54.294Z,64.79
2022-08-26T14:59:54.299Z,65.49
2022-08-26T15:00:54.272Z,65.92
2022-08-26T15:01:54.466Z,65.72
2022-08-26T15:02:54.415Z,65.82
2022-08-26T15:03:54.259Z,65.39
2022-08-26T15:04:54.222Z,65.52
2022-08-26T15:05:54.207Z,65.52
2022-08-26T15:06:54.201Z,65.92
2022-08-26T15:07:54.189Z,66.18
2022-08-26T15:08:54.172Z,65.78
2022-08-26T15:09:54.167Z,65.39
2022-08-26T15:10:54.159Z,66.22
2022-08-26T15:11:54.137Z,66.31
2022-08-26T15:12:54.184Z,67.14
2022-08-26T15:13:54.123Z,67.64
2022-08-26T15:14:54.146Z,68.53
2022-08-26T15:15:54.182Z,67.31
2022-08-26T15:16:54.079Z,67.21
2022-08-26T15:17:54.088Z,68.04
2022-08-26T15:18:54.068Z,67.44
2022-08-26T15:19:54.113Z,67.74
2022-08-26T15:20:54.039Z,68.04
2022-08-26T15:21:54.078Z,68.23
2022-08-26T15:22:54.061Z,68.13
2022-08-26T15:23:54.069Z,68.63
2022-08-26T15:24:54.047Z,68.10
2022-08-26T15:25:54.023Z,67.94
2022-08-26T15:26:53.989Z,68.43
2022-08-26T15:27:53.992Z,68.73
2022-08-26T15:28:53.984Z,68.43
2022-08-26T15:29:53.985Z,68.53
2022-08-26T15:30:54.030Z,69.36
2022-08-26T15:31:55.280Z,68.96
2022-08-26T15:32:53.970Z,68.76
2022-08-26T15:33:53.941Z,69.56
2022-08-26T15:34:53.928Z,69.85
2022-08-26T15:35:53.915Z,69.16
2022-08-26T15:36:53.920Z,69.23
2022-08-26T15:38:53.906Z,68.90
2022-08-26T15:39:53.922Z,67.54
2022-08-26T15:40:53.894Z,68.96
2022-08-26T15:41:53.877Z,69.06
2022-08-26T15:43:01.223Z,69.96
2022-08-26T15:43:53.855Z,69.96
2022-08-26T15:44:53.806Z,69.85
2022-08-26T15:45:53.804Z,69.69
2022-08-26T15:46:58.268Z,69.99
2022-08-26T15:48:00.763Z,70.19
2022-08-26T15:48:53.765Z,69.79
2022-08-26T15:49:53.839Z,70.32
2022-08-26T15:50:53.773Z,70.52
2022-08-26T15:51:53.788Z,70.82
2022-08-26T15:52:53.725Z,70.78
2022-08-26T15:53:53.729Z,69.79
2022-08-26T15:54:53.785Z,69.79
2022-08-26T15:55:53.730Z,69.39
2022-08-26T15:56:53.700Z,69.73
2022-08-26T15:57:53.703Z,70.62
2022-08-26T15:58:53.731Z,70.95
2022-08-26T15:59:53.697Z,70.65
2022-08-26T16:00:53.664Z,70.65
2022-08-26T16:01:53.708Z,71.05
2022-08-26T16:02:53.649Z,70.85
2022-08-26T16:03:53.657Z,71.45
2022-08-26T16:04:53.611Z,71.55
2022-08-26T16:05:53.665Z,71.35
2022-08-26T16:06:53.610Z,70.85
2022-08-26T16:07:53.584Z,71.15
2022-08-26T16:08:53.606Z,71.25
2022-08-26T16:09:54.107Z,71.95
2022-08-26T16:10:53.548Z,71.05
2022-08-26T16:11:53.542Z,71.19
2022-08-26T16:12:53.548Z,72.18
2022-08-26T16:13:53.536Z,71.48
2022-08-26T16:14:53.515Z,71.35
2022-08-26T16:15:53.589Z,71.45
2022-08-26T16:16:53.486Z,70.98
2022-08-26T16:17:53.470Z,71.78
2022-08-26T16:18:53.487Z,71.78
2022-08-26T16:19:53.460Z,72.08
2022-08-26T16:21:12.738Z,72.08
2022-08-26T16:21:53.434Z,72.28
2022-08-26T16:22:53.427Z,72.18
2022-08-26T16:23:53.466Z,72.18
2022-08-26T16:24:53.430Z,72.61
2022-08-26T16:25:53.390Z,72.41
2022-08-26T16:26:53.395Z,72.41
2022-08-26T16:27:53.407Z,72.91
2022-08-26T16:28:53.389Z,73.01
2022-08-26T16:29:53.352Z,72.61
2022-08-26T16:30:53.362Z,72.81
2022-08-26T16:31:53.336Z,73.11
2022-08-26T16:32:53.318Z,73.14
2022-08-26T16:33:53.320Z,73.35
2022-08-26T16:34:56.263Z,73.14
2022-08-26T16:35:53.282Z,73.35
2022-08-26T16:36:53.291Z,73.21
2022-08-26T16:37:53.290Z,72.95
2022-08-26T16:38:53.290Z,72.75
2022-08-26T16:39:53.275Z,72.95
2022-08-26T16:40:53.232Z,72.85
2022-08-26T16:41:53.232Z,73.44
2022-08-26T16:42:53.237Z,73.65
2022-08-26T16:43:53.228Z,73.35
2022-08-26T16:44:53.190Z,73.14
2022-08-26T16:45:53.180Z,73.44
2022-08-26T16:46:58.537Z,73.28
2022-08-26T16:47:53.228Z,73.44
2022-08-26T16:48:53.172Z,73.25
2022-08-26T16:49:53.140Z,73.48
2022-08-26T16:50:53.184Z,73.68
2022-08-26T16:51:53.119Z,73.58
2022-08-26T16:52:54.571Z,73.48
2022-08-26T16:53:53.105Z,74.18
2022-08-26T16:54:53.109Z,74.18
2022-08-26T16:55:53.069Z,73.94
2022-08-26T16:56:53.068Z,73.65
2022-08-26T16:57:53.051Z,73.35
2022-08-26T16:58:53.053Z,73.55
2022-08-26T16:59:53.028Z,73.35
2022-08-26T17:00:53.030Z,73.35
2022-08-26T17:01:53.080Z,73.35
2022-08-26T17:02:53.044Z,73.65
2022-08-26T17:03:52.997Z,73.74
2022-08-26T17:04:52.983Z,73.78
2022-08-26T17:05:52.981Z,74.68
2022-08-26T17:06:52.965Z,74.62
2022-08-26T17:07:52.948Z,74.71
2022-08-26T17:08:52.965Z,74.51
2022-08-26T17:09:52.923Z,74.88
2022-08-26T17:10:54.690Z,75.11
2022-08-26T17:11:52.922Z,74.58
2022-08-26T17:12:52.895Z,75.11
2022-08-26T17:13:52.894Z,75.11
2022-08-26T17:14:52.880Z,74.81
2022-08-26T17:15:52.920Z,74.71
2022-08-26T17:16:52.853Z,74.91
2022-08-26T17:17:52.847Z,75.01
2022-08-26T17:18:52.839Z,75.01
2022-08-26T17:19:52.815Z,75.01
2022-08-26T17:20:52.826Z,75.41
2022-08-26T17:21:52.800Z,75.41
2022-08-26T17:22:52.789Z,75.11
2022-08-26T17:23:52.797Z,74.81
2022-08-26T17:24:52.764Z,75.11
2022-08-26T17:25:52.762Z,74.91
2022-08-26T17:26:55.460Z,75.11
2022-08-26T17:27:52.763Z,74.81
2022-08-26T17:28:52.724Z,75.11
2022-08-26T17:29:52.729Z,75.31
2022-08-26T17:30:52.783Z,75.31
2022-08-26T17:31:52.694Z,75.11
2022-08-26T17:32:52.688Z,75.01
2022-08-26T17:33:53.764Z,74.91
2022-08-26T17:34:52.667Z,75.41
2022-08-26T17:35:52.648Z,75.31
2022-08-26T17:36:52.643Z,75.01
2022-08-26T17:37:52.621Z,75.11
2022-08-26T17:38:54.265Z,75.51
2022-08-26T17:39:52.642Z,75.35